createdAt,value
2019-05-16T00:00:58.602Z,10.28
2019-05-16T00:01:55.834Z,10.24
2019-05-16T00:02:55.829Z,10.18
2019-05-16T00:03:57.868Z,10.15
2019-05-16T00:04:55.830Z,10.25
2019-05-16T00:05:58.257Z,10.24
2019-05-16T00:06:55.778Z,10.14
2019-05-16T00:07:58.688Z,10.09
2019-05-16T00:08:55.753Z,10.06
2019-05-16T00:09:55.775Z,10.07
2019-05-16T00:10:57.957Z,10.06
2019-05-16T00:11:58.008Z,10.09
2019-05-16T00:12:55.712Z,10.01
2019-05-16T00:13:57.756Z,10.01
2019-05-16T00:14:58.072Z,10.01
2019-05-16T00:15:55.677Z,10.04
2019-05-16T00:16:55.670Z,9.94
2019-05-16T00:17:58.046Z,9.97
2019-05-16T00:18:55.648Z,10.01
2019-05-16T00:19:55.670Z,9.99
2019-05-16T00:20:55.622Z,10.12
2019-05-16T00:21:55.609Z,10.07
2019-05-16T00:22:55.607Z,10.04
2019-05-16T00:23:55.601Z,10.10
2019-05-16T00:24:57.666Z,10.19
2019-05-16T00:25:55.572Z,10.07
2019-05-16T00:26:57.924Z,10.12
2019-05-16T00:27:55.545Z,10.07
2019-05-16T00:28:55.538Z,10.04
2019-05-16T00:29:57.977Z,10.07
2019-05-16T00:30:55.530Z,10.14
2019-05-16T00:31:55.502Z,10.06
2019-05-16T00:32:55.496Z,10.18
2019-05-16T00:33:57.783Z,10.19
2019-05-16T00:34:55.503Z,10.18
2019-05-16T00:36:02.553Z,10.03
2019-05-16T00:36:58.204Z,10.10
2019-05-16T00:37:55.438Z,10.01
2019-05-16T00:38:57.715Z,9.99
2019-05-16T00:39:55.443Z,10.06
2019-05-16T00:40:55.407Z,10.04
2019-05-16T00:41:55.403Z,10.03
2019-05-16T00:42:55.422Z,10.04
2019-05-16T00:43:57.624Z,10.04
2019-05-16T00:44:55.391Z,10.01
2019-05-16T00:45:55.363Z,10.01
2019-05-16T00:46:55.350Z,9.88
2019-05-16T00:47:55.334Z,9.93
2019-05-16T00:48:55.318Z,9.91
2019-05-16T00:49:55.340Z,9.85
2019-05-16T00:50:55.298Z,9.85
2019-05-16T00:51:55.291Z,9.97
2019-05-16T00:52:55.282Z,9.99
2019-05-16T00:53:55.275Z,9.96
2019-05-16T00:54:55.282Z,9.99
2019-05-16T00:55:55.248Z,9.99
2019-05-16T00:56:57.699Z,10.01
2019-05-16T00:57:55.229Z,10.07
2019-05-16T00:58:55.213Z,9.97
2019-05-16T00:59:55.249Z,10.01
2019-05-16T01:00:55.197Z,9.99
2019-05-16T01:01:55.179Z,10.01
2019-05-16T01:02:55.174Z,9.88
2019-05-16T01:03:55.163Z,9.86
2019-05-16T01:04:55.179Z,9.93
2019-05-16T01:05:55.149Z,9.85
2019-05-16T01:06:55.126Z,9.91
2019-05-16T01:07:55.118Z,9.93
2019-05-16T01:08:55.109Z,9.83
2019-05-16T01:09:55.103Z,9.82
2019-05-16T01:10:55.115Z,9.93
2019-05-16T01:11:55.080Z,9.79
2019-05-16T01:12:55.067Z,9.88
2019-05-16T01:13:55.057Z,9.82
2019-05-16T01:14:55.042Z,9.81
2019-05-16T01:15:55.059Z,9.76
2019-05-16T01:16:55.025Z,9.73
2019-05-16T01:17:55.017Z,9.67
2019-05-16T01:18:55.003Z,9.75
2019-05-16T01:19:54.997Z,9.79
2019-05-16T01:20:55.005Z,9.68
2019-05-16T01:21:54.966Z,9.66
2019-05-16T01:22:54.958Z,9.67
2019-05-16T01:23:54.948Z,9.71
2019-05-16T01:24:54.939Z,9.60
2019-05-16T01:25:54.954Z,9.58
2019-05-16T01:26:54.914Z,9.49
2019-05-16T01:27:54.906Z,9.58
2019-05-16T01:28:54.896Z,9.52
2019-05-16T01:29:54.885Z,9.45
2019-05-16T01:30:54.902Z,9.48
2019-05-16T01:31:54.867Z,9.46
2019-05-16T01:32:54.850Z,9.46
2019-05-16T01:33:54.839Z,9.50
2019-05-16T01:34:54.845Z,9.45
2019-05-16T01:35:54.841Z,9.45
2019-05-16T01:36:54.813Z,9.28
2019-05-16T01:37:54.802Z,9.25
2019-05-16T01:38:54.786Z,9.34
2019-05-16T01:39:54.778Z,9.42
2019-05-16T01:40:54.790Z,9.40
2019-05-16T01:41:54.754Z,9.39
2019-05-16T01:42:54.748Z,9.28
2019-05-16T01:43:54.732Z,9.27
2019-05-16T01:44:54.731Z,9.34
2019-05-16T01:45:54.734Z,9.27
2019-05-16T01:46:54.706Z,9.31
2019-05-16T01:47:54.690Z,9.27
2019-05-16T01:48:54.687Z,9.28
2019-05-16T01:49:54.666Z,9.18
2019-05-16T01:50:54.702Z,9.25
2019-05-16T01:51:54.659Z,9.18
2019-05-16T01:52:54.635Z,9.15
2019-05-16T01:53:54.626Z,9.05
2019-05-16T01:54:54.620Z,9.06
2019-05-16T01:55:54.910Z,9.02
2019-05-16T01:56:54.595Z,9.09
2019-05-16T01:57:54.582Z,9.10
2019-05-16T01:58:54.570Z,9.06
2019-05-16T01:59:54.569Z,9.12
2019-05-16T02:01:11.190Z,9.05
2019-05-16T02:02:00.173Z,8.96
2019-05-16T02:02:57.824Z,9.04
2019-05-16T02:03:54.523Z,9.01
2019-05-16T02:04:54.510Z,8.97
2019-05-16T02:05:54.504Z,8.90
2019-05-16T02:06:55.002Z,8.87
2019-05-16T02:07:54.474Z,8.87
2019-05-16T02:08:54.467Z,8.75
2019-05-16T02:09:54.458Z,8.84
2019-05-16T02:10:54.444Z,8.91
2019-05-16T02:11:54.480Z,8.81
2019-05-16T02:12:54.425Z,8.94
2019-05-16T02:13:54.413Z,8.83
2019-05-16T02:14:54.406Z,8.93
2019-05-16T02:15:54.395Z,8.93
2019-05-16T02:16:54.407Z,8.87
2019-05-16T02:17:54.373Z,8.93
2019-05-16T02:18:54.360Z,8.90
2019-05-16T02:19:54.346Z,8.91
2019-05-16T02:20:54.344Z,8.94
2019-05-16T02:21:54.381Z,8.86
2019-05-16T02:22:54.320Z,8.97
2019-05-16T02:23:54.299Z,8.94
2019-05-16T02:24:54.297Z,8.96
2019-05-16T02:25:54.283Z,8.91
2019-05-16T02:26:54.275Z,8.86
2019-05-16T02:27:54.291Z,8.99
2019-05-16T02:28:54.254Z,8.91
2019-05-16T02:29:54.252Z,8.86
2019-05-16T02:30:54.229Z,8.91
2019-05-16T02:31:54.223Z,8.93
2019-05-16T02:32:54.238Z,8.86
2019-05-16T02:33:54.200Z,8.93
2019-05-16T02:34:54.192Z,8.90
2019-05-16T02:35:55.595Z,8.84
2019-05-16T02:37:14.594Z,8.91
2019-05-16T02:37:55.563Z,8.93
2019-05-16T02:38:55.477Z,8.87
2019-05-16T02:39:54.474Z,8.93
2019-05-16T02:40:55.242Z,8.93
2019-05-16T02:41:54.114Z,8.88
2019-05-16T02:42:56.180Z,8.83
2019-05-16T02:43:54.117Z,8.86
2019-05-16T02:44:54.091Z,8.86
2019-05-16T02:45:54.079Z,8.87
2019-05-16T02:46:54.062Z,8.78
2019-05-16T02:47:54.079Z,8.71
2019-05-16T02:48:54.039Z,8.71
2019-05-16T02:49:54.042Z,8.72
2019-05-16T02:50:54.015Z,8.72
2019-05-16T02:51:54.010Z,8.73
2019-05-16T02:52:54.048Z,8.72
2019-05-16T02:53:53.985Z,8.68
2019-05-16T02:54:53.976Z,8.69
2019-05-16T02:55:53.967Z,8.76
2019-05-16T02:56:53.974Z,8.78
2019-05-16T02:57:54.005Z,8.72
2019-05-16T02:58:53.945Z,8.68
2019-05-16T02:59:53.923Z,8.73
2019-05-16T03:00:53.921Z,8.71
2019-05-16T03:01:53.907Z,8.73
2019-05-16T03:02:53.935Z,8.73
2019-05-16T03:03:53.902Z,8.75
2019-05-16T03:04:53.870Z,8.75
2019-05-16T03:05:53.854Z,8.76
2019-05-16T03:06:53.851Z,8.76
2019-05-16T03:07:53.841Z,8.72
2019-05-16T03:08:53.859Z,8.73
2019-05-16T03:09:53.829Z,8.69
2019-05-16T03:10:53.807Z,8.72
2019-05-16T03:11:53.807Z,8.76
2019-05-16T03:12:53.793Z,8.72
2019-05-16T03:13:53.803Z,8.68
2019-05-16T03:14:54.659Z,8.73
2019-05-16T03:15:53.752Z,8.73
2019-05-16T03:16:53.739Z,8.72
2019-05-16T03:17:53.731Z,8.69
2019-05-16T03:18:53.749Z,8.65
2019-05-16T03:19:53.710Z,8.62
2019-05-16T03:20:53.700Z,8.55
2019-05-16T03:21:53.694Z,8.65
2019-05-16T03:22:53.675Z,8.65
2019-05-16T03:23:53.710Z,8.65
2019-05-16T03:24:53.656Z,8.66
2019-05-16T03:25:53.644Z,8.75
2019-05-16T03:26:53.634Z,8.54
2019-05-16T03:27:53.629Z,8.63
2019-05-16T03:28:53.621Z,8.55
2019-05-16T03:29:53.629Z,8.58
2019-05-16T03:30:54.868Z,8.63
2019-05-16T03:31:54.801Z,8.62
2019-05-16T03:32:54.992Z,8.58
2019-05-16T03:33:59.782Z,8.65
2019-05-16T03:34:55.369Z,8.60
2019-05-16T03:35:55.351Z,8.55
2019-05-16T03:36:54.586Z,8.55
2019-05-16T03:37:59.628Z,8.66
2019-05-16T03:38:54.509Z,8.60
2019-05-16T03:39:53.521Z,8.57
2019-05-16T03:40:53.483Z,8.58
2019-05-16T03:41:53.478Z,8.54
2019-05-16T03:42:53.491Z,8.58
2019-05-16T03:43:53.452Z,8.60
2019-05-16T03:44:53.470Z,8.62
2019-05-16T03:45:53.434Z,8.63
2019-05-16T03:46:53.424Z,8.57
2019-05-16T03:47:53.413Z,8.63
2019-05-16T03:48:53.406Z,8.53
2019-05-16T03:49:53.428Z,8.57
2019-05-16T03:50:53.381Z,8.60
2019-05-16T03:51:53.374Z,8.62
2019-05-16T03:52:53.361Z,8.51
2019-05-16T03:53:53.349Z,8.60
2019-05-16T03:54:53.341Z,8.53
2019-05-16T03:55:53.363Z,8.54
2019-05-16T03:56:53.319Z,8.60
2019-05-16T03:57:53.310Z,8.51
2019-05-16T03:58:53.293Z,8.55
2019-05-16T03:59:53.283Z,8.57
2019-05-16T04:00:54.855Z,8.57
2019-05-16T04:01:53.276Z,8.53
2019-05-16T04:02:53.260Z,8.50
2019-05-16T04:03:53.240Z,8.50
2019-05-16T04:04:53.227Z,8.57
2019-05-16T04:05:53.258Z,8.54
2019-05-16T04:06:53.207Z,8.57
2019-05-16T04:08:09.979Z,8.60
2019-05-16T04:08:54.183Z,8.58
2019-05-16T04:09:53.174Z,8.60
2019-05-16T04:10:53.216Z,8.58
2019-05-16T04:11:53.159Z,8.58
2019-05-16T04:12:53.142Z,8.66
2019-05-16T04:13:53.132Z,8.62
2019-05-16T04:14:53.120Z,8.65
2019-05-16T04:15:53.261Z,8.60
2019-05-16T04:16:53.105Z,8.58
2019-05-16T04:17:53.093Z,8.63
2019-05-16T04:18:53.085Z,8.62
2019-05-16T04:19:53.071Z,8.57
2019-05-16T04:20:53.151Z,8.57
2019-05-16T04:21:53.052Z,8.58
2019-05-16T04:22:53.028Z,8.60
2019-05-16T04:23:53.036Z,8.57
2019-05-16T04:24:53.023Z,8.57
2019-05-16T04:25:53.206Z,8.63
2019-05-16T04:26:52.995Z,8.63
2019-05-16T04:27:52.983Z,8.65
2019-05-16T04:28:52.975Z,8.72
2019-05-16T04:29:52.963Z,8.75
2019-05-16T04:30:52.977Z,8.72
2019-05-16T04:31:52.943Z,8.84
2019-05-16T04:32:52.930Z,8.83
2019-05-16T04:33:52.920Z,8.86
2019-05-16T04:34:52.914Z,8.84
2019-05-16T04:35:53.344Z,8.91
2019-05-16T04:36:52.886Z,8.97
2019-05-16T04:37:52.875Z,9.05
2019-05-16T04:38:52.864Z,9.04
2019-05-16T04:39:52.871Z,9.05
2019-05-16T04:40:52.877Z,9.06
2019-05-16T04:41:52.843Z,9.10
2019-05-16T04:42:52.830Z,9.15
2019-05-16T04:43:52.811Z,9.18
2019-05-16T04:44:52.801Z,9.15
2019-05-16T04:45:53.103Z,9.20
2019-05-16T04:46:52.789Z,9.09
2019-05-16T04:47:52.777Z,9.06
2019-05-16T04:48:52.769Z,9.05
2019-05-16T04:49:52.746Z,9.05
2019-05-16T04:50:52.963Z,8.97
2019-05-16T04:51:52.763Z,9.02
2019-05-16T04:52:52.716Z,9.01
2019-05-16T04:53:52.703Z,8.91
2019-05-16T04:54:52.708Z,8.91
2019-05-16T04:55:52.682Z,8.94
2019-05-16T04:56:52.704Z,8.96
2019-05-16T04:57:52.666Z,8.94
2019-05-16T04:58:52.653Z,8.88
2019-05-16T04:59:52.651Z,8.87
2019-05-16T05:00:52.739Z,8.83
2019-05-16T05:01:52.644Z,8.81
2019-05-16T05:02:52.613Z,8.86
2019-05-16T05:04:06.321Z,8.91
2019-05-16T05:04:53.589Z,8.93
2019-05-16T05:05:52.577Z,8.90
2019-05-16T05:06:55.660Z,8.81
2019-05-16T05:07:52.554Z,8.86
2019-05-16T05:08:58.621Z,8.90
2019-05-16T05:09:53.533Z,8.88
2019-05-16T05:10:52.527Z,8.86
2019-05-16T05:11:52.540Z,8.84
2019-05-16T05:12:52.497Z,8.86
2019-05-16T05:13:52.495Z,8.90
2019-05-16T05:14:52.485Z,8.91
2019-05-16T05:15:52.468Z,8.81
2019-05-16T05:16:52.489Z,8.99
2019-05-16T05:17:52.451Z,8.94
2019-05-16T05:18:52.435Z,8.93
2019-05-16T05:19:52.427Z,8.86
2019-05-16T05:20:52.971Z,8.99
2019-05-16T05:21:52.432Z,8.90
2019-05-16T05:22:52.394Z,8.99
2019-05-16T05:23:52.389Z,9.05
2019-05-16T05:24:52.370Z,9.06
2019-05-16T05:25:52.362Z,9.15
2019-05-16T05:26:52.380Z,9.21
2019-05-16T05:27:52.340Z,9.20
2019-05-16T05:28:52.346Z,9.18
2019-05-16T05:29:52.324Z,9.24
2019-05-16T05:30:52.311Z,9.21
2019-05-16T05:31:55.151Z,9.24
2019-05-16T05:32:52.296Z,9.21
2019-05-16T05:33:52.276Z,9.18
2019-05-16T05:34:52.276Z,9.16
2019-05-16T05:35:52.253Z,9.06
2019-05-16T05:36:52.270Z,9.12
2019-05-16T05:37:52.236Z,9.12
2019-05-16T05:39:07.525Z,9.09
2019-05-16T05:39:53.212Z,9.18
2019-05-16T05:40:52.206Z,9.13
2019-05-16T05:41:52.216Z,9.09
2019-05-16T05:42:52.178Z,9.05
2019-05-16T05:43:54.528Z,9.15
2019-05-16T05:44:52.160Z,9.13
2019-05-16T05:45:52.151Z,9.15
2019-05-16T05:46:52.185Z,9.13
2019-05-16T05:47:52.125Z,9.18
2019-05-16T05:48:52.117Z,9.23
2019-05-16T05:49:52.120Z,9.13
2019-05-16T05:50:52.091Z,9.27
2019-05-16T05:51:52.077Z,9.30
2019-05-16T05:52:52.098Z,9.30
2019-05-16T05:53:52.051Z,9.30
2019-05-16T05:54:52.058Z,9.40
2019-05-16T05:55:52.042Z,9.46
2019-05-16T05:56:52.030Z,9.57
2019-05-16T05:57:52.050Z,9.63
2019-05-16T05:58:52.006Z,9.53
2019-05-16T05:59:52.002Z,9.71
2019-05-16T06:00:52.526Z,9.73
2019-05-16T06:01:52.071Z,9.79
2019-05-16T06:02:52.018Z,9.96
2019-05-16T06:03:51.954Z,10.21
2019-05-16T06:04:51.948Z,10.17
2019-05-16T06:05:51.936Z,10.14
2019-05-16T06:06:51.924Z,10.17
2019-05-16T06:07:51.942Z,10.25
2019-05-16T06:08:51.909Z,10.32
2019-05-16T06:09:56.225Z,10.36
2019-05-16T06:10:51.891Z,10.42
2019-05-16T06:11:51.886Z,10.52
2019-05-16T06:12:51.888Z,10.56
2019-05-16T06:13:51.852Z,10.63
2019-05-16T06:14:51.848Z,10.68
2019-05-16T06:15:51.826Z,10.60
2019-05-16T06:16:51.818Z,10.56
2019-05-16T06:17:51.835Z,10.28
2019-05-16T06:18:51.797Z,10.28
2019-05-16T06:19:51.790Z,10.36
2019-05-16T06:20:51.788Z,10.46
2019-05-16T06:21:51.768Z,10.52
2019-05-16T06:22:51.827Z,10.65
2019-05-16T06:23:51.856Z,10.65
2019-05-16T06:24:51.748Z,10.55
2019-05-16T06:25:51.741Z,10.52
2019-05-16T06:26:51.823Z,10.46
2019-05-16T06:27:51.766Z,10.58
2019-05-16T06:28:51.699Z,10.65
2019-05-16T06:29:51.680Z,10.62
2019-05-16T06:30:52.168Z,10.70
2019-05-16T06:31:51.658Z,10.80
2019-05-16T06:32:51.665Z,10.73
2019-05-16T06:33:51.639Z,10.77
2019-05-16T06:34:51.627Z,10.91
2019-05-16T06:35:51.757Z,10.83
2019-05-16T06:36:51.605Z,10.76
2019-05-16T06:37:51.618Z,10.74
2019-05-16T06:38:51.581Z,10.77
2019-05-16T06:39:51.568Z,10.95
2019-05-16T06:40:52.539Z,11.01
2019-05-16T06:41:51.547Z,11.17
2019-05-16T06:42:51.563Z,11.06
2019-05-16T06:43:51.528Z,10.84
2019-05-16T06:44:51.516Z,10.98
2019-05-16T06:45:51.745Z,11.01
2019-05-16T06:47:08.675Z,11.06
2019-05-16T06:47:52.509Z,10.99
2019-05-16T06:48:51.472Z,10.98
2019-05-16T06:49:51.462Z,10.92
2019-05-16T06:50:52.017Z,10.65
2019-05-16T06:51:51.707Z,10.66
2019-05-16T06:52:51.472Z,10.77
2019-05-16T06:53:51.430Z,10.74
2019-05-16T06:54:53.809Z,10.71
2019-05-16T06:55:51.398Z,10.60
2019-05-16T06:56:51.386Z,10.60
2019-05-16T06:57:51.378Z,10.65
2019-05-16T06:58:52.122Z,10.73
2019-05-16T06:59:51.359Z,10.81
2019-05-16T07:00:52.599Z,10.78
2019-05-16T07:01:51.339Z,10.78
2019-05-16T07:02:51.328Z,10.77
2019-05-16T07:03:51.347Z,10.84
2019-05-16T07:04:51.303Z,10.73
2019-05-16T07:05:51.317Z,10.83
2019-05-16T07:06:58.559Z,10.86
2019-05-16T07:07:52.279Z,11.02
2019-05-16T07:08:51.297Z,11.14
2019-05-16T07:10:00.115Z,11.14
2019-05-16T07:10:52.244Z,11.29
2019-05-16T07:11:51.244Z,11.28
2019-05-16T07:12:51.216Z,11.41
2019-05-16T07:13:52.023Z,11.56
2019-05-16T07:14:51.256Z,11.74
2019-05-16T07:15:51.187Z,11.82
2019-05-16T07:16:51.178Z,11.49
2019-05-16T07:17:51.215Z,11.54
2019-05-16T07:18:51.182Z,11.39
2019-05-16T07:19:51.144Z,11.25
2019-05-16T07:20:51.513Z,11.28
2019-05-16T07:21:51.122Z,11.32
2019-05-16T07:22:51.116Z,11.21
2019-05-16T07:23:51.399Z,11.32
2019-05-16T07:24:51.091Z,11.46
2019-05-16T07:25:51.084Z,11.39
2019-05-16T07:26:51.097Z,11.41
2019-05-16T07:27:51.324Z,11.70
2019-05-16T07:28:51.729Z,11.78
2019-05-16T07:29:51.040Z,11.97
2019-05-16T07:30:51.030Z,11.78
2019-05-16T07:31:52.462Z,11.93
2019-05-16T07:32:51.001Z,11.97
2019-05-16T07:33:51.037Z,11.97
2019-05-16T07:34:51.001Z,12.01
2019-05-16T07:35:51.590Z,11.75
2019-05-16T07:36:51.002Z,11.85
2019-05-16T07:37:50.956Z,11.75
2019-05-16T07:38:50.946Z,11.78
2019-05-16T07:39:51.287Z,11.87
2019-05-16T07:40:51.481Z,11.75
2019-05-16T07:41:51.015Z,11.77
2019-05-16T07:42:51.169Z,11.90
2019-05-16T07:43:50.887Z,12.01
2019-05-16T07:44:50.905Z,12.23
2019-05-16T07:45:51.573Z,12.27
2019-05-16T07:46:51.719Z,12.46
2019-05-16T07:47:51.197Z,12.37
2019-05-16T07:48:51.934Z,12.63
2019-05-16T07:49:50.851Z,12.70
2019-05-16T07:50:50.817Z,12.87
2019-05-16T07:51:50.806Z,13.15
2019-05-16T07:52:51.287Z,13.29
2019-05-16T07:53:50.783Z,13.37
2019-05-16T07:54:50.961Z,13.55
2019-05-16T07:55:51.217Z,13.59
2019-05-16T07:56:59.255Z,13.62
2019-05-16T07:57:51.738Z,13.20
2019-05-16T07:58:50.956Z,13.03
2019-05-16T07:59:50.849Z,12.87
2019-05-16T08:01:02.001Z,12.93
2019-05-16T08:01:54.155Z,12.88
2019-05-16T08:02:50.756Z,12.87
2019-05-16T08:03:51.153Z,12.75
2019-05-16T08:04:50.708Z,13.07
2019-05-16T08:05:51.610Z,12.69
2019-05-16T08:06:50.643Z,12.88
2019-05-16T08:07:51.401Z,13.07
2019-05-16T08:08:51.259Z,12.88
2019-05-16T08:09:50.747Z,12.88
2019-05-16T08:10:51.251Z,12.88
2019-05-16T08:11:50.593Z,12.92
2019-05-16T08:12:51.450Z,12.78
2019-05-16T08:13:50.862Z,12.74
2019-05-16T08:14:50.581Z,12.95
2019-05-16T08:15:51.034Z,13.11
2019-05-16T08:16:50.541Z,13.00
2019-05-16T08:17:51.204Z,13.17
2019-05-16T08:18:50.871Z,12.92
2019-05-16T08:19:50.975Z,12.56
2019-05-16T08:20:52.485Z,12.63
2019-05-16T08:21:50.776Z,12.63
2019-05-16T08:22:50.895Z,12.49
2019-05-16T08:23:50.694Z,12.29
2019-05-16T08:24:50.663Z,12.21
2019-05-16T08:25:50.843Z,11.89
2019-05-16T08:27:52.188Z,12.45
2019-05-16T08:28:50.725Z,12.56
2019-05-16T08:29:51.406Z,12.64
2019-05-16T08:31:52.846Z,12.63
2019-05-16T08:32:52.867Z,12.29
2019-05-16T08:33:53.707Z,12.30
2019-05-16T08:34:51.518Z,12.26
2019-05-16T08:35:51.608Z,12.41
2019-05-16T08:37:51.672Z,12.62
2019-05-16T08:38:51.586Z,12.64
2019-05-16T08:39:50.935Z,12.42
2019-05-16T08:41:05.988Z,12.29
2019-05-16T08:42:52.044Z,12.52
2019-05-16T08:43:53.374Z,12.45
2019-05-16T08:44:51.615Z,12.45
2019-05-16T08:45:51.508Z,12.37
2019-05-16T08:46:57.109Z,12.45
2019-05-16T08:47:52.485Z,12.67
2019-05-16T08:48:53.836Z,13.00
2019-05-16T08:49:52.186Z,12.85
2019-05-16T08:50:05.379Z,12.45
2019-05-16T08:50:09.653Z,12.48
2019-05-16T08:50:54.455Z,12.78
2019-05-16T08:51:52.915Z,12.56
2019-05-16T08:52:52.880Z,12.70
2019-05-16T08:53:50.584Z,12.67
2019-05-16T08:54:51.123Z,12.49
2019-05-16T08:55:50.700Z,12.62
2019-05-16T08:57:52.944Z,12.23
2019-05-16T08:58:53.806Z,12.31
2019-05-16T08:59:52.341Z,12.51
2019-05-16T09:01:57.541Z,12.75
2019-05-16T09:02:52.398Z,12.79
2019-05-16T09:03:52.113Z,12.69
2019-05-16T09:04:53.480Z,12.70
2019-05-16T09:05:53.244Z,12.79
2019-05-16T09:06:52.630Z,12.60
2019-05-16T09:07:50.002Z,12.70
2019-05-16T09:08:49.997Z,12.81
2019-05-16T09:10:10.718Z,12.74
2019-05-16T09:10:34.907Z,12.16
2019-05-16T09:10:34.908Z,12.64
2019-05-16T09:10:35.081Z,12.62
2019-05-16T09:11:00.823Z,12.49
2019-05-16T09:11:50.967Z,12.42
2019-05-16T09:12:49.951Z,12.42
2019-05-16T09:13:49.950Z,12.39
2019-05-16T09:14:49.934Z,12.46
2019-05-16T09:15:49.978Z,12.44
2019-05-16T09:16:49.919Z,12.41
2019-05-16T09:17:49.898Z,12.42
2019-05-16T09:18:38.343Z,12.42
2019-05-16T09:18:50.967Z,12.41
2019-05-16T09:19:49.882Z,12.70
2019-05-16T09:20:50.595Z,12.77
2019-05-16T09:21:49.887Z,12.71
2019-05-16T09:22:49.848Z,13.04
2019-05-16T09:23:49.841Z,12.87
2019-05-16T09:24:49.825Z,13.02
2019-05-16T09:25:49.878Z,13.02
2019-05-16T09:26:49.827Z,13.00
2019-05-16T09:27:49.791Z,12.87
2019-05-16T09:28:49.785Z,12.96
2019-05-16T09:29:49.771Z,13.04
2019-05-16T09:30:49.766Z,13.21
2019-05-16T09:32:07.878Z,13.29
2019-05-16T09:32:50.753Z,12.97
2019-05-16T09:33:49.736Z,13.06
2019-05-16T09:34:49.753Z,12.97
2019-05-16T09:35:49.726Z,12.88
2019-05-16T09:36:49.732Z,12.88
2019-05-16T09:37:49.704Z,12.64
2019-05-16T09:38:49.680Z,12.38
2019-05-16T09:39:49.670Z,12.30
2019-05-16T09:40:49.659Z,12.21
2019-05-16T09:41:54.425Z,12.06
2019-05-16T09:42:50.638Z,12.12
2019-05-16T09:43:49.629Z,12.33
2019-05-16T09:44:49.618Z,12.51
2019-05-16T09:45:49.606Z,12.44
2019-05-16T09:46:49.621Z,12.34
2019-05-16T09:47:49.583Z,12.41
2019-05-16T09:48:49.572Z,12.33
2019-05-16T09:49:49.563Z,12.27
2019-05-16T09:50:49.557Z,12.44
2019-05-16T09:51:49.573Z,12.23
2019-05-16T09:52:49.530Z,12.33
2019-05-16T09:53:49.519Z,12.41
2019-05-16T09:54:49.509Z,12.49
2019-05-16T09:55:49.502Z,12.69
2019-05-16T09:56:49.518Z,12.77
2019-05-16T09:57:49.489Z,13.18
2019-05-16T09:58:49.467Z,13.55
2019-05-16T09:59:49.445Z,13.67
2019-05-16T10:00:49.451Z,13.55
2019-05-16T10:01:49.465Z,13.06
2019-05-16T10:02:49.427Z,13.04
2019-05-16T10:03:49.415Z,13.49
2019-05-16T10:04:49.404Z,13.56
2019-05-16T10:05:49.397Z,13.56
2019-05-16T10:06:49.425Z,13.51
2019-05-16T10:07:49.382Z,13.27
2019-05-16T10:08:49.364Z,13.07
2019-05-16T10:09:50.288Z,12.81
2019-05-16T10:10:49.341Z,12.97
2019-05-16T10:12:05.264Z,13.12
2019-05-16T10:12:50.319Z,12.95
2019-05-16T10:13:49.361Z,12.75
2019-05-16T10:14:49.311Z,12.82
2019-05-16T10:15:49.284Z,12.59
2019-05-16T10:16:49.278Z,12.57
2019-05-16T10:17:49.298Z,12.62
2019-05-16T10:18:49.256Z,12.70
2019-05-16T10:19:49.240Z,12.52
2019-05-16T10:20:49.237Z,12.42
2019-05-16T10:21:49.219Z,12.29
2019-05-16T10:22:50.581Z,12.34
2019-05-16T10:23:49.199Z,12.27
2019-05-16T10:24:49.199Z,12.48
2019-05-16T10:25:49.180Z,12.52
2019-05-16T10:26:53.768Z,12.46
2019-05-16T10:27:49.194Z,12.51
2019-05-16T10:28:49.147Z,12.23
2019-05-16T10:29:49.154Z,12.34
2019-05-16T10:30:50.110Z,12.31
2019-05-16T10:31:53.150Z,12.29
2019-05-16T10:32:49.132Z,12.05
2019-05-16T10:33:49.101Z,11.93
2019-05-16T10:34:49.086Z,11.72
2019-05-16T10:35:49.081Z,11.67
2019-05-16T10:36:49.069Z,11.68
2019-05-16T10:37:49.085Z,11.59
2019-05-16T10:38:49.044Z,11.64
2019-05-16T10:39:49.037Z,11.41
2019-05-16T10:40:49.028Z,11.62
2019-05-16T10:41:49.011Z,11.57
2019-05-16T10:42:49.026Z,11.71
2019-05-16T10:43:48.986Z,11.70
2019-05-16T10:44:48.986Z,11.46
2019-05-16T10:45:48.971Z,11.34
2019-05-16T10:46:49.007Z,11.24
2019-05-16T10:47:48.974Z,11.52
2019-05-16T10:48:48.947Z,11.70
2019-05-16T10:49:48.931Z,11.90
2019-05-16T10:50:48.943Z,11.96
2019-05-16T10:51:48.997Z,11.97
2019-05-16T10:53:07.041Z,11.97
2019-05-16T10:54:05.701Z,11.90
2019-05-16T10:54:57.995Z,11.93
2019-05-16T10:55:49.861Z,11.74
2019-05-16T10:56:48.889Z,11.75
2019-05-16T10:57:48.988Z,11.80
2019-05-16T10:59:14.658Z,11.82
2019-05-16T11:00:06.576Z,11.87
2019-05-16T11:01:10.951Z,11.94
2019-05-16T11:01:49.798Z,12.02
2019-05-16T11:02:48.904Z,12.23
2019-05-16T11:03:49.343Z,12.42
2019-05-16T11:05:00.149Z,12.20
2019-05-16T11:06:02.953Z,12.29
2019-05-16T11:06:49.759Z,12.48
2019-05-16T11:07:52.937Z,12.78
2019-05-16T11:08:48.724Z,13.03
2019-05-16T11:09:58.531Z,13.09
2019-05-16T11:10:49.737Z,12.87
2019-05-16T11:11:48.692Z,13.09
2019-05-16T11:12:54.913Z,13.03
2019-05-16T11:13:51.216Z,12.67
2019-05-16T11:14:48.663Z,12.44
2019-05-16T11:15:48.663Z,12.08
2019-05-16T11:16:48.656Z,11.78
2019-05-16T11:17:48.632Z,11.68
2019-05-16T11:18:48.647Z,11.44
2019-05-16T11:19:48.614Z,11.28
2019-05-16T11:20:49.361Z,11.07
2019-05-16T11:21:48.584Z,11.10
2019-05-16T11:22:48.582Z,11.21
2019-05-16T11:23:48.590Z,11.39
2019-05-16T11:24:48.558Z,11.39
2019-05-16T11:25:48.543Z,11.35
2019-05-16T11:26:48.556Z,11.43
2019-05-16T11:27:48.519Z,11.53
2019-05-16T11:28:49.328Z,11.70
2019-05-16T11:29:48.498Z,11.94
2019-05-16T11:30:49.903Z,12.13
2019-05-16T11:31:48.475Z,12.04
2019-05-16T11:32:48.471Z,12.24
2019-05-16T11:33:48.484Z,12.21
2019-05-16T11:34:48.446Z,12.34
2019-05-16T11:35:48.434Z,12.29
2019-05-16T11:36:48.427Z,12.23
2019-05-16T11:37:48.413Z,12.29
2019-05-16T11:38:48.426Z,12.42
2019-05-16T11:39:48.399Z,12.45
2019-05-16T11:40:48.387Z,12.33
2019-05-16T11:41:48.370Z,12.04
2019-05-16T11:43:05.113Z,12.04
2019-05-16T11:43:49.377Z,12.06
2019-05-16T11:44:48.338Z,11.99
2019-05-16T11:45:48.331Z,12.02
2019-05-16T11:46:49.151Z,11.74
2019-05-16T11:47:48.307Z,11.75
2019-05-16T11:48:49.160Z,11.87
2019-05-16T11:49:48.287Z,11.83
2019-05-16T11:50:48.314Z,11.87
2019-05-16T11:51:48.309Z,11.90
2019-05-16T11:52:48.255Z,12.05
2019-05-16T11:53:48.276Z,12.05
2019-05-16T11:54:48.252Z,11.99
2019-05-16T11:55:55.598Z,11.78
2019-05-16T11:56:49.337Z,11.70
2019-05-16T11:57:48.203Z,11.59
2019-05-16T11:58:48.219Z,11.70
2019-05-16T11:59:48.179Z,11.86
2019-05-16T12:00:48.645Z,12.16
2019-05-16T12:01:48.149Z,12.48
2019-05-16T12:02:48.148Z,12.64
2019-05-16T12:03:48.187Z,12.51
2019-05-16T12:04:48.132Z,12.49
2019-05-16T12:05:48.629Z,12.69
2019-05-16T12:06:48.102Z,12.39
2019-05-16T12:07:48.819Z,12.56
2019-05-16T12:08:48.083Z,12.48
2019-05-16T12:09:55.081Z,12.38
2019-05-16T12:10:49.067Z,12.46
2019-05-16T12:11:48.052Z,12.54
2019-05-16T12:12:48.041Z,12.66
2019-05-16T12:13:48.030Z,12.82
2019-05-16T12:14:48.056Z,12.93
2019-05-16T12:15:48.012Z,12.99
2019-05-16T12:16:48.001Z,13.15
2019-05-16T12:18:00.308Z,12.93
2019-05-16T12:18:48.978Z,12.87
2019-05-16T12:19:52.222Z,12.77
2019-05-16T12:20:47.957Z,12.56
2019-05-16T12:21:47.992Z,12.34
2019-05-16T12:22:47.937Z,12.34
2019-05-16T12:23:47.948Z,12.23
2019-05-16T12:24:47.957Z,12.19
2019-05-16T12:25:47.903Z,12.16
2019-05-16T12:26:48.136Z,12.11
2019-05-16T12:27:48.215Z,12.13
2019-05-16T12:28:47.875Z,12.13
2019-05-16T12:29:54.772Z,12.06
2019-05-16T12:30:48.851Z,12.21
2019-05-16T12:31:57.785Z,12.26
2019-05-16T12:32:48.835Z,12.44
2019-05-16T12:33:48.103Z,12.44
2019-05-16T12:34:47.830Z,12.41
2019-05-16T12:35:47.805Z,12.46
2019-05-16T12:36:47.788Z,12.45
2019-05-16T12:37:48.202Z,12.46
2019-05-16T12:38:47.778Z,12.27
2019-05-16T12:39:47.795Z,12.33
2019-05-16T12:40:48.161Z,12.56
2019-05-16T12:41:49.150Z,12.66
2019-05-16T12:42:47.723Z,12.51
2019-05-16T12:43:52.643Z,12.52
2019-05-16T12:44:48.772Z,12.54
2019-05-16T12:45:47.692Z,12.81
2019-05-16T12:46:47.686Z,12.84
2019-05-16T12:47:47.666Z,12.78
2019-05-16T12:48:47.658Z,12.51
2019-05-16T12:49:47.675Z,12.48
2019-05-16T12:50:48.224Z,12.45
2019-05-16T12:51:47.626Z,12.44
2019-05-16T12:52:47.672Z,12.51
2019-05-16T12:53:48.000Z,12.52
2019-05-16T12:54:47.693Z,12.52
2019-05-16T12:55:47.930Z,12.48
2019-05-16T12:56:48.183Z,12.39
2019-05-16T12:57:48.914Z,12.44
2019-05-16T12:58:50.427Z,12.06
2019-05-16T12:59:51.983Z,12.06
2019-05-16T13:00:54.224Z,12.06
2019-05-16T13:01:48.525Z,12.05
2019-05-16T13:02:47.609Z,12.02